Time;durP1;ratioP1;P1;durP2;ratioP2;P2;SDS_P1;SDS_P2;PMS_P1;PMS_P2;Temp;Humidity;BMP_temperature;BMP_pressure;BME280_temperature;BME280_humidity;BME280_pressure;Samples;Min_cycle;Max_cycle;Signal;HPM_P1;HPM_P2
2022/03/25 06:09:51;;;;;;;59.22;30.27;;;;;;;3.29;47.84;101295.69;5025544;28;106087;-74
2022/03/25 06:12:17;;;;;;;53.35;30.20;;;;;;;3.57;47.97;101288.69;5024475;27;105933;-73
2022/03/25 06:14:42;;;;;;;64.43;32.55;;;;;;;3.84;48.13;101296.63;5023742;27;106181;-72
2022/03/25 06:17:07;;;;;;;60.97;29.92;;;;;;;4.07;47.78;101297.75;5002983;28;107178;-75
2022/03/25 06:19:33;;;;;;;63.05;33.08;;;;;;;4.33;47.93;101292.53;5004311;28;106222;-74
2022/03/25 06:21:59;;;;;;;63.28;32.78;;;;;;;4.65;48.01;101294.78;5005280;28;106362;-72
2022/03/25 06:24:24;;;;;;;56.13;32.58;;;;;;;4.94;47.84;101299.03;5004997;28;106210;-72
2022/03/25 06:26:52;;;;;;;66.20;32.95;;;;;;;5.28;47.47;101296.66;5021143;28;106059;-72
2022/03/25 06:29:18;;;;;;;62.83;33.97;;;;;;;5.54;47.32;101302.72;5024012;27;105894;-70
2022/03/25 06:31:43;;;;;;;60.53;33.95;;;;;;;5.81;47.15;101301.66;5024628;27;105925;-70
2022/03/25 06:34:09;;;;;;;70.93;33.95;;;;;;;6.07;46.88;101316.50;5024319;27;106124;-77
2022/03/25 06:36:34;;;;;;;66.38;33.55;;;;;;;6.39;46.54;101310.59;5023354;28;117253;-77
2022/03/25 06:38:59;;;;;;;65.60;33.42;;;;;;;6.67;46.15;101303.25;5023839;27;111107;-79
2022/03/25 06:41:24;;;;;;;62.83;33.13;;;;;;;6.89;45.87;101309.50;5024515;27;106120;-71
2022/03/25 06:43:50;;;;;;;61.75;34.33;;;;;;;7.13;45.20;101308.59;5024395;27;105877;-76
2022/03/25 06:46:19;;;;;;;64.80;32.55;;;;;;;7.34;44.84;101306.91;5023851;27;105842;-75
2022/03/25 06:48:45;;;;;;;61.70;32.55;;;;;;;7.55;45.09;101314.09;5023408;27;106123;-74
2022/03/25 06:51:11;;;;;;;76.82;34.13;;;;;;;7.87;44.39;101315.94;5024323;27;106113;-75
2022/03/25 06:53:37;;;;;;;58.95;32.03;;;;;;;8.18;44.11;101316.94;5024356;27;106268;-77
2022/03/25 06:56:03;;;;;;;57.22;30.77;;;;;;;8.52;43.64;101313.31;5023596;28;105871;-75
2022/03/25 06:58:29;;;;;;;58.42;31.17;;;;;;;8.76;42.84;101305.91;5022967;27;105911;-76
2022/03/25 07:00:55;;;;;;;70.72;32.45;;;;;;;9.12;43.02;101316.16;5021803;28;106311;-79
2022/03/25 07:03:21;;;;;;;57.88;31.60;;;;;;;9.43;41.99;101319.66;5021763;27;106209;-75
2022/03/25 07:05:47;;;;;;;59.38;31.73;;;;;;;9.59;41.66;101312.97;5021383;27;105997;-75
2022/03/25 07:08:12;;;;;;;68.20;33.10;;;;;;;9.75;41.08;101315.94;5020671;27;106091;-74
2022/03/25 07:10:38;;;;;;;64.63;31.58;;;;;;;9.90;40.65;101315.56;5022257;28;107179;-76
2022/03/25 07:13:04;;;;;;;58.45;30.33;;;;;;;10.14;40.32;101312.47;5003209;28;106372;-74
2022/03/25 07:15:30;;;;;;;54.40;30.15;;;;;;;10.42;39.84;101315.31;5003273;28;105924;-75
2022/03/25 07:17:55;;;;;;;55.42;30.10;;;;;;;10.66;39.48;101320.16;5002832;28;105924;-74
2022/03/25 07:20:22;;;;;;;57.97;31.25;;;;;;;10.96;39.09;101315.63;4995185;28;105980;-71
2022/03/25 07:22:50;;;;;;;53.78;29.30;;;;;;;11.18;38.21;101319.75;4989758;28;106239;-70
2022/03/25 07:25:16;;;;;;;63.50;29.85;;;;;;;11.35;37.78;101318.97;4993077;28;105960;-70
2022/03/25 07:27:45;;;;;;;52.33;28.83;;;;;;;11.56;38.00;101320.53;5009606;28;106449;-70
2022/03/25 07:30:12;;;;;;;51.97;29.48;;;;;;;11.70;36.65;101316.56;5010526;28;105949;-71
2022/03/25 07:32:37;;;;;;;62.70;32.30;;;;;;;11.85;36.53;101320.38;5010038;28;106147;-73
2022/03/25 07:35:04;;;;;;;57.20;30.27;;;;;;;11.90;35.94;101325.25;5008373;28;106089;-70
2022/03/25 07:37:29;;;;;;;57.47;30.30;;;;;;;11.96;36.19;101326.50;5009429;28;106087;-73
2022/03/25 07:39:55;;;;;;;61.35;32.08;;;;;;;12.09;36.01;101329.66;5010364;28;105823;-71
2022/03/25 07:42:20;;;;;;;56.83;31.25;;;;;;;12.24;35.36;101329.97;5008853;28;113232;-72
2022/03/25 07:44:46;;;;;;;51.20;29.38;;;;;;;12.39;35.13;101324.91;5008405;28;106036;-72
2022/03/25 07:47:13;;;;;;;55.13;29.58;;;;;;;12.45;34.68;101332.31;5009506;28;106141;-73
2022/03/25 07:49:39;;;;;;;53.28;29.35;;;;;;;12.71;34.55;101336.84;5009231;28;106227;-74
2022/03/25 07:52:06;;;;;;;54.45;28.05;;;;;;;13.14;33.76;101339.63;4990415;28;106146;-73
2022/03/25 07:54:32;;;;;;;52.30;29.00;;;;;;;13.40;33.56;101339.63;4987612;28;106011;-73
2022/03/25 07:56:58;;;;;;;54.97;27.25;;;;;;;13.91;32.54;101334.25;4987433;28;120028;-71
2022/03/25 07:59:28;;;;;;;52.17;28.08;;;;;;;14.43;32.01;101335.81;4988924;28;106128;-73
2022/03/25 08:01:54;;;;;;;44.97;26.20;;;;;;;14.85;31.26;101331.31;4988029;28;106277;-73
2022/03/25 08:04:21;;;;;;;49.13;27.73;;;;;;;15.19;30.88;101331.03;4987335;28;106464;-71
2022/03/25 08:06:46;;;;;;;51.20;27.15;;;;;;;15.54;30.41;101336.94;4987776;28;106108;-70
2022/03/25 08:09:12;;;;;;;54.05;27.33;;;;;;;15.84;30.01;101334.47;4987680;28;106105;-73
2022/03/25 08:11:37;;;;;;;47.42;27.83;;;;;;;16.32;28.83;101344.22;4987555;28;106197;-71
2022/03/25 08:14:02;;;;;;;44.85;25.85;;;;;;;16.44;28.58;101336.56;4986947;28;106135;-72
2022/03/25 08:16:28;;;;;;;48.85;26.25;;;;;;;16.84;28.31;101337.19;4987828;28;106497;-71
2022/03/25 08:18:53;;;;;;;43.20;24.30;;;;;;;17.20;27.80;101334.66;4987423;28;106192;-71
2022/03/25 08:21:18;;;;;;;43.85;24.08;;;;;;;17.59;27.10;101338.91;4987717;28;106404;-71
2022/03/25 08:29:12;;;;;;;44.30;22.65;;;;;;;19.44;25.04;101339.03;5003329;28;106413;-73
2022/03/25 08:31:37;;;;;;;38.58;21.00;;;;;;;20.05;24.44;101344.66;5007909;28;106219;-66
2022/03/25 08:34:03;;;;;;;34.20;21.85;;;;;;;20.58;23.80;101346.59;5008556;28;105924;-68
2022/03/25 08:36:29;;;;;;;38.90;21.15;;;;;;;21.21;23.10;101343.38;5008570;28;105871;-66
2022/03/25 08:38:55;;;;;;;39.72;22.45;;;;;;;21.73;22.46;101356.16;5009077;28;105989;-69
2022/03/25 08:41:20;;;;;;;43.42;22.95;;;;;;;22.21;21.86;101365.69;5008333;28;106209;-72
2022/03/25 08:43:48;;;;;;;41.95;20.55;;;;;;;24.60;20.10;101354.19;5008539;28;106102;-72
2022/03/25 08:46:14;;;;;;;38.00;21.42;;;;;;;27.50;18.12;101353.72;5008397;28;106218;-71
2022/03/25 08:48:39;;;;;;;38.22;22.60;;;;;;;30.54;15.67;101358.25;5009290;28;105892;-71
2022/03/25 08:51:05;;;;;;;36.72;21.52;;;;;;;33.02;13.69;101361.16;5008545;28;106182;-72
2022/03/25 08:53:30;;;;;;;41.00;22.30;;;;;;;35.10;11.75;101357.66;5008362;28;106154;-79
2022/03/25 08:55:56;;;;;;;36.47;19.55;;;;;;;36.47;10.99;101355.94;5007975;28;106075;-76
2022/03/25 08:58:21;;;;;;;31.17;19.75;;;;;;;38.05;10.15;101366.28;5007729;28;106503;-78
2022/03/25 09:00:46;;;;;;;33.80;20.85;;;;;;;39.23;9.56;101361.34;5008762;28;106261;-73
2022/03/25 09:03:12;;;;;;;34.55;20.02;;;;;;;40.44;8.85;101371.75;5008242;28;106408;-80
2022/03/25 09:05:38;;;;;;;28.13;19.08;;;;;;;41.71;8.28;101371.03;5008364;28;106297;-76
2022/03/25 09:08:04;;;;;;;32.45;19.75;;;;;;;42.53;7.78;101365.25;5009001;28;106112;-75
2022/03/25 09:10:29;;;;;;;31.80;18.85;;;;;;;42.87;7.30;101362.91;5008543;28;106140;-74
2022/03/25 09:12:55;;;;;;;31.95;20.67;;;;;;;43.63;6.98;101370.25;5006938;28;117865;-71
2022/03/25 09:15:22;;;;;;;29.13;20.00;;;;;;;44.63;6.54;101362.88;5007868;28;106101;-75
2022/03/25 09:17:49;;;;;;;28.33;18.70;;;;;;;45.22;6.04;101362.59;5008763;28;106253;-74
2022/03/25 09:20:14;;;;;;;31.13;18.90;;;;;;;45.71;5.92;101360.81;5008612;28;106701;-71
2022/03/25 09:22:40;;;;;;;26.80;18.48;;;;;;;46.13;5.65;101366.09;5007865;28;106941;-71
2022/03/25 09:25:07;;;;;;;27.67;20.23;;;;;;;47.02;5.49;101358.00;5007170;28;106157;-71
2022/03/25 09:27:34;;;;;;;31.33;20.50;;;;;;;47.39;4.80;101365.47;5008449;28;105948;-75
2022/03/25 09:29:59;;;;;;;34.65;19.88;;;;;;;47.43;4.82;101367.09;5008054;28;106102;-75
2022/03/25 09:32:24;;;;;;;28.33;18.05;;;;;;;47.16;4.89;101362.91;5007371;28;105971;-72
2022/03/25 09:35:08;;;;;;;25.75;19.08;;;;;;;47.92;4.44;101366.84;5007728;28;105981;-78
2022/03/25 09:37:45;;;;;;;29.00;19.10;;;;;;;48.73;4.03;101378.59;5007971;28;105939;-73
2022/03/25 09:40:14;;;;;;;26.33;18.92;;;;;;;49.35;3.66;101370.00;5007554;28;106725;-72
2022/03/25 09:42:40;;;;;;;;;;;;;;;49.51;3.45;101363.88;5007157;28;106643;-73
2022/03/25 09:45:06;;;;;;;24.42;18.30;;;;;;;49.80;3.83;101358.84;5008573;28;106431;-73
2022/03/25 09:47:32;;;;;;;23.00;18.13;;;;;;;50.32;3.64;101365.81;5009075;28;106425;-78
2022/03/25 09:49:58;;;;;;;24.90;17.65;;;;;;;50.82;2.85;101364.56;5006883;28;106296;-74
2022/03/25 09:52:26;;;;;;;24.75;18.08;;;;;;;50.81;2.53;101362.94;5007605;28;106669;-74
2022/03/25 09:54:51;;;;;;;31.42;19.33;;;;;;;50.62;2.68;101359.44;5007658;28;106019;-72
2022/03/25 09:57:17;;;;;;;30.90;17.88;;;;;;;50.89;2.88;101362.41;5008548;28;106153;-74
2022/03/25 09:59:43;;;;;;;22.27;16.77;;;;;;;51.09;2.31;101359.78;5006093;28;106365;-75
2022/03/25 10:02:08;;;;;;;22.17;15.95;;;;;;;51.39;2.25;101360.22;5007551;28;106637;-76
2022/03/25 10:04:44;;;;;;;22.23;16.20;;;;;;;51.67;1.90;101361.88;5007550;28;105967;-74
2022/03/25 10:07:27;;;;;;;20.35;15.90;;;;;;;51.07;2.14;101353.72;5008398;28;106103;-71
2022/03/25 10:10:15;;;;;;;22.05;15.10;;;;;;;51.65;1.60;101358.66;5007344;28;106317;-71
2022/03/25 10:12:44;;;;;;;23.73;15.52;;;;;;;51.71;2.05;101362.66;5006787;28;106850;-70
2022/03/25 10:15:21;;;;;;;19.13;15.02;;;;;;;52.21;1.49;101355.41;5007022;28;105988;-71
2022/03/25 10:17:56;;;;;;;22.38;15.60;;;;;;;52.68;1.39;101360.25;5008366;28;106344;-69
2022/03/25 10:20:37;;;;;;;19.15;13.88;;;;;;;53.53;1.10;101358.16;5007114;28;105907;-68
2022/03/25 10:23:07;;;;;;;22.05;15.93;;;;;;;53.38;1.16;101354.78;5006758;28;106071;-76
2022/03/25 10:25:37;;;;;;;24.00;15.65;;;;;;;53.62;1.02;101349.81;5007445;28;106090;-83
2022/03/25 10:28:04;;;;;;;21.48;15.07;;;;;;;53.42;1.24;101353.50;5007431;28;106339;-76
2022/03/25 10:30:40;;;;;;;17.40;14.17;;;;;;;53.39;1.24;101348.66;5007381;28;106195;-73
2022/03/25 10:33:20;;;;;;;25.30;15.35;;;;;;;53.39;1.04;101351.50;5006621;28;106772;-74
2022/03/25 10:35:59;;;;;;;20.33;14.35;;;;;;;53.67;1.09;101346.41;5007070;28;106611;-73
2022/03/25 10:38:26;;;;;;;34.60;29.17;;;;;;;53.48;1.19;101345.25;5007942;28;105802;-76
2022/03/25 10:40:53;;;;;;;17.90;14.23;;;;;;;53.60;1.24;101346.56;5007459;28;106334;-74
2022/03/25 10:43:19;;;;;;;20.17;13.05;;;;;;;54.33;0.93;101349.28;4986957;28;105989;-76
2022/03/25 10:45:45;;;;;;;20.17;16.13;;;;;;;54.74;0.67;101344.94;4987303;28;106370;-75
2022/03/25 10:48:15;;;;;;;29.73;22.38;;;;;;;55.15;0.32;101338.88;4987155;28;106403;-76
2022/03/25 10:51:04;;;;;;;18.05;13.13;;;;;;;54.87;0.24;101333.56;4986383;28;106786;-75
2022/03/25 10:53:31;;;;;;;16.00;13.23;;;;;;;54.30;0.54;101327.38;4986380;28;106657;-73
2022/03/25 10:56:12;;;;;;;17.88;14.05;;;;;;;54.76;0.28;101336.72;4989175;28;106140;-74
2022/03/25 10:58:38;;;;;;;19.30;13.40;;;;;;;55.35;0.40;101330.13;4990236;28;106501;-73
2022/03/25 11:01:07;;;;;;;17.50;13.23;;;;;;;55.56;0.04;101328.66;4990355;28;106144;-73
2022/03/25 11:03:33;;;;;;;18.02;13.63;;;;;;;55.85;0.31;101322.03;4989604;28;107959;-74
2022/03/25 11:05:58;;;;;;;17.58;12.95;;;;;;;55.69;0.19;101323.75;4990310;28;106072;-75
2022/03/25 11:08:24;;;;;;;17.63;13.50;;;;;;;55.65;0.00;101325.91;4990570;28;106438;-74
2022/03/25 11:10:51;;;;;;;18.77;13.75;;;;;;;55.03;0.06;101312.72;4990568;28;106001;-74
2022/03/25 11:13:17;;;;;;;14.98;12.85;;;;;;;55.41;0.00;101320.56;4990263;28;106335;-73
2022/03/25 11:15:44;;;;;;;18.38;12.98;;;;;;;55.51;0.24;101320.66;4989809;28;106111;-73
2022/03/25 11:18:10;;;;;;;19.63;13.43;;;;;;;53.77;0.25;101307.56;4990948;28;105963;-74
2022/03/25 11:20:36;;;;;;;17.23;13.57;;;;;;;52.58;0.45;101313.72;4990448;28;106211;-78
2022/03/25 11:23:29;;;;;;;30.05;26.83;;;;;;;51.95;0.89;101308.72;4989771;28;106579;-75
2022/03/25 11:25:57;;;;;;;25.02;18.85;;;;;;;52.09;0.88;101304.88;4990351;28;106149;-75
2022/03/25 11:28:33;;;;;;;19.23;13.93;;;;;;;52.87;1.02;101307.47;4990701;28;106039;-75
2022/03/25 11:31:01;;;;;;;18.63;15.10;;;;;;;53.67;0.33;101302.88;4989876;28;106105;-75
2022/03/25 11:33:27;;;;;;;19.98;13.48;;;;;;;54.47;0.18;101296.00;4989686;28;106948;-75
2022/03/25 11:36:25;;;;;;;15.60;13.55;;;;;;;54.48;0.50;101303.28;4989613;28;106057;-74
2022/03/25 11:39:22;;;;;;;19.85;14.05;;;;;;;54.38;0.45;101294.56;4988714;28;106083;-74
2022/03/25 11:41:48;;;;;;;18.00;13.88;;;;;;;54.35;0.49;101289.75;4990012;28;106045;-73
2022/03/25 11:44:25;;;;;;;16.77;13.32;;;;;;;54.37;0.14;101292.97;4989508;28;106644;-71
2022/03/25 11:47:00;;;;;;;19.27;12.95;;;;;;;55.18;0.35;101293.13;4989660;28;105983;-72
2022/03/25 11:49:26;;;;;;;13.60;12.05;;;;;;;55.93;0.00;101289.88;4990146;28;106080;-72
2022/03/25 11:51:52;;;;;;;14.95;12.15;;;;;;;55.88;0.00;101292.53;4989404;28;105841;-73
2022/03/25 11:54:41;;;;;;;17.00;12.05;;;;;;;55.66;0.09;101284.66;4989405;28;107043;-73
2022/03/25 11:57:23;;;;;;;18.98;12.60;;;;;;;54.93;0.00;101285.28;4989320;28;107144;-72
2022/03/25 11:59:51;;;;;;;17.42;12.25;;;;;;;54.66;0.35;101275.06;4990196;28;106286;-74
2022/03/25 12:02:36;;;;;;;15.43;11.40;;;;;;;54.93;0.01;101271.03;4989758;28;106109;-73
2022/03/25 12:05:24;;;;;;;15.80;12.20;;;;;;;55.16;0.26;101272.78;4990069;28;106544;-74
2022/03/25 12:08:23;;;;;;;17.48;13.07;;;;;;;54.86;0.00;101265.53;4988773;28;106198;-76
2022/03/25 12:10:50;;;;;;;19.13;13.30;;;;;;;54.59;0.00;101261.03;4989722;28;106211;-75
2022/03/25 12:13:16;;;;;;;18.53;13.27;;;;;;;54.08;0.00;101251.00;4989236;28;106286;-72
2022/03/25 12:15:44;;;;;;;15.05;12.07;;;;;;;53.38;0.37;101261.63;4988758;28;106692;-75
2022/03/25 12:18:44;;;;;;;20.20;13.52;;;;;;;53.98;0.31;101249.22;4988579;28;106044;-75
2022/03/25 12:21:32;;;;;;;18.48;13.18;;;;;;;53.63;0.58;101248.84;4989249;28;106018;-73
2022/03/25 12:23:59;;;;;;;17.33;14.65;;;;;;;53.36;0.61;101267.00;4989156;28;105976;-71
2022/03/25 12:26:32;;;;;;;13.23;10.88;;;;;;;53.24;0.50;101250.59;4989422;28;106533;-71
2022/03/25 12:28:58;;;;;;;16.50;11.63;;;;;;;52.97;0.46;101251.59;4988254;28;106684;-72
2022/03/25 12:31:28;;;;;;;17.55;11.10;;;;;;;53.25;0.06;101255.06;4989385;28;106063;-73
2022/03/25 12:33:58;;;;;;;14.88;11.13;;;;;;;52.71;0.19;101256.97;4988735;28;106429;-72
2022/03/25 12:36:25;;;;;;;15.05;11.15;;;;;;;52.72;0.28;101247.22;4988662;28;105857;-67
2022/03/25 12:38:54;;;;;;;13.60;10.98;;;;;;;53.17;0.27;101243.03;4988771;28;106591;-68
2022/03/25 12:41:27;;;;;;;13.90;11.00;;;;;;;52.92;0.50;101252.91;4989431;28;105866;-70
2022/03/25 12:44:00;;;;;;;14.00;10.98;;;;;;;53.01;0.00;101248.66;4989113;28;106497;-73
2022/03/25 12:46:27;;;;;;;14.82;10.30;;;;;;;53.09;0.00;101236.69;4988619;28;106294;-71
2022/03/25 12:49:00;;;;;;;14.93;10.90;;;;;;;52.00;0.54;101248.56;4988525;28;106047;-70
2022/03/25 12:51:26;;;;;;;13.55;11.38;;;;;;;51.96;0.75;101242.13;4989253;28;106001;-72
2022/03/25 12:53:51;;;;;;;13.80;11.00;;;;;;;51.34;0.80;101230.94;4988890;28;106110;-72
2022/03/25 12:56:16;;;;;;;13.43;11.10;;;;;;;51.24;0.37;101231.91;4988368;28;105816;-67
2022/03/25 12:58:42;;;;;;;14.68;10.93;;;;;;;50.97;0.97;101224.16;4988468;28;106122;-68
2022/03/25 13:01:14;;;;;;;18.35;11.07;;;;;;;50.26;0.88;101220.91;4988596;28;106046;-70
2022/03/25 13:03:41;;;;;;;14.00;10.02;;;;;;;49.31;1.04;101234.22;4988899;28;106210;-72
2022/03/25 13:06:26;;;;;;;12.33;10.40;;;;;;;49.39;1.04;101226.47;4988321;28;105810;-72
2022/03/25 13:09:02;;;;;;;18.83;11.80;;;;;;;48.98;0.95;101225.06;4986001;28;106166;-71
2022/03/25 13:11:28;;;;;;;17.83;10.38;;;;;;;48.93;1.20;101217.81;5003433;28;107517;-73
2022/03/25 13:13:53;;;;;;;14.95;10.85;;;;;;;48.86;1.20;101214.19;5008609;28;106199;-67
2022/03/25 13:16:23;;;;;;;17.67;11.82;;;;;;;48.50;1.35;101223.59;5008034;28;106036;-68
2022/03/25 13:18:49;;;;;;;14.85;10.88;;;;;;;47.87;1.59;101220.44;5007247;28;105867;-70
2022/03/25 13:21:14;;;;;;;15.17;10.70;;;;;;;47.40;1.31;101212.72;5007750;28;105898;-71
2022/03/25 13:23:40;;;;;;;17.38;10.63;;;;;;;46.84;1.76;101202.84;5007896;28;106678;-69
2022/03/25 13:26:07;;;;;;;14.55;10.68;;;;;;;45.86;1.91;101198.56;5006897;28;105983;-70
2022/03/25 13:28:35;;;;;;;15.30;10.55;;;;;;;44.64;2.27;101201.56;5007468;28;106199;-69
2022/03/25 13:31:03;;;;;;;15.45;10.25;;;;;;;42.94;2.44;101204.16;5008316;28;106270;-70
2022/03/25 13:33:45;;;;;;;21.17;10.13;;;;;;;40.66;3.29;101204.97;5007913;28;106214;-71
2022/03/25 13:36:11;;;;;;;16.00;10.93;;;;;;;38.38;4.23;101206.34;5007775;28;106116;-72
2022/03/25 13:38:36;;;;;;;17.50;11.15;;;;;;;36.59;5.04;101195.19;5007473;28;106337;-74
2022/03/25 13:41:08;;;;;;;20.33;12.00;;;;;;;35.13;5.89;101184.56;5007668;28;106093;-70
2022/03/25 13:43:35;;;;;;;19.13;11.63;;;;;;;33.81;6.51;101196.06;5007651;28;106040;-72
2022/03/25 13:46:04;;;;;;;31.35;12.88;;;;;;;32.83;6.65;101189.22;5007453;28;106049;-71
2022/03/25 13:48:57;;;;;;;17.45;11.32;;;;;;;31.84;7.42;101181.19;5005819;28;108004;-74
2022/03/25 13:51:24;;;;;;;18.65;11.48;;;;;;;30.85;7.79;101191.22;5008549;28;105888;-72
2022/03/25 13:54:06;;;;;;;21.65;12.15;;;;;;;30.14;7.98;101189.50;5007682;28;106264;-74
2022/03/25 13:56:44;;;;;;;20.05;11.95;;;;;;;29.57;8.38;101189.53;5007996;28;106127;-73
2022/03/25 13:59:11;;;;;;;23.60;13.10;;;;;;;29.04;8.89;101190.50;5007384;28;106742;-72
2022/03/25 14:48:15;;;;;;;15.07;8.00;;;;;;;23.01;11.18;101163.16;5007184;28;106424;-68
2022/03/25 14:50:41;;;;;;;14.48;7.50;;;;;;;22.93;11.61;101165.09;5006938;28;106004;-71
2022/03/25 14:53:06;;;;;;;16.30;8.18;;;;;;;22.74;12.07;101156.16;5013852;27;106219;-69
2022/03/25 14:55:31;;;;;;;16.73;7.65;;;;;;;22.48;12.35;101157.31;5015569;28;106896;-72
2022/03/25 14:57:57;;;;;;;13.45;7.35;;;;;;;22.19;12.45;101159.66;5004268;28;106293;-69
2022/03/25 15:00:22;;;;;;;12.73;7.25;;;;;;;21.95;12.67;101158.63;5021470;28;105946;-68
2022/03/25 15:02:49;;;;;;;14.38;8.27;;;;;;;21.78;12.81;101155.66;5008365;27;105936;-68
2022/03/25 15:05:14;;;;;;;13.95;7.15;;;;;;;21.64;12.81;101146.81;5017833;27;106060;-71
2022/03/25 15:07:39;;;;;;;11.40;6.72;;;;;;;21.42;12.90;101146.28;5014564;28;105990;-76
2022/03/25 15:10:05;;;;;;;11.15;6.97;;;;;;;21.11;13.17;101150.66;5011847;27;106052;-73
2022/03/25 15:12:30;;;;;;;14.48;6.85;;;;;;;20.83;13.49;101153.72;5021325;28;106178;-69
2022/03/25 15:14:56;;;;;;;13.43;5.78;;;;;;;20.65;13.54;101143.53;5008404;28;106102;-82
2022/03/25 15:17:21;;;;;;;10.63;5.90;;;;;;;20.43;13.55;101144.63;5004058;28;105880;-71
2022/03/25 15:19:47;;;;;;;13.38;6.47;;;;;;;20.26;13.62;101146.97;5005571;28;105769;-71
2022/03/25 15:22:12;;;;;;;19.05;7.00;;;;;;;20.06;13.51;101149.72;5004752;28;106483;-71
2022/03/25 15:24:38;;;;;;;13.10;6.10;;;;;;;19.88;13.53;101138.72;5005062;28;106088;-78
2022/03/25 15:27:03;;;;;;;13.00;6.15;;;;;;;19.64;13.90;101140.13;5004494;28;106051;-74
2022/03/25 15:34:57;;;;;;;10.30;5.80;;;;;;;18.89;14.48;101141.00;5004043;28;105883;-71
2022/03/25 15:37:23;;;;;;;9.93;5.60;;;;;;;18.70;14.48;101137.16;5004646;28;106341;-68
2022/03/25 15:40:02;;;;;;;14.43;6.03;;;;;;;18.49;14.61;101130.03;5005304;28;106031;-69
2022/03/25 15:42:30;;;;;;;11.77;6.30;;;;;;;18.30;14.79;101134.28;5004710;28;105909;-68
2022/03/25 15:44:56;;;;;;;18.45;6.65;;;;;;;18.13;14.89;101134.59;5003545;28;106052;-69
2022/03/25 15:47:21;;;;;;;11.80;6.22;;;;;;;17.99;15.40;101135.50;5003839;28;106382;-72
2022/03/25 15:49:47;;;;;;;14.90;6.78;;;;;;;17.87;15.47;101136.03;5005246;28;105978;-70
2022/03/25 15:52:12;;;;;;;14.77;6.22;;;;;;;17.75;15.78;101134.88;5003916;28;106188;-71
2022/03/25 15:54:38;;;;;;;11.13;6.10;;;;;;;17.59;15.84;101135.97;5003685;28;106019;-71
2022/03/25 15:57:04;;;;;;;11.05;6.10;;;;;;;17.40;16.11;101129.38;5003982;28;106479;-74
2022/03/25 15:59:30;;;;;;;12.90;6.50;;;;;;;17.18;16.86;101124.00;4992215;28;106246;-73
2022/03/25 16:01:55;;;;;;;12.70;6.78;;;;;;;17.02;16.85;101129.63;4990283;28;113188;-72
2022/03/25 16:04:21;;;;;;;12.80;6.53;;;;;;;16.87;17.20;101127.78;4989924;28;127748;-68
2022/03/25 16:06:50;;;;;;;17.00;7.25;;;;;;;16.72;17.40;101125.09;4990508;28;106083;-68
2022/03/25 16:09:17;;;;;;;14.88;7.00;;;;;;;16.57;17.54;101138.56;4991206;28;106132;-68
2022/03/25 16:11:42;;;;;;;11.25;5.93;;;;;;;16.43;18.04;101136.75;4990905;28;106244;-73
2022/03/25 16:14:07;;;;;;;22.05;5.95;;;;;;;16.34;18.23;101140.53;4990007;28;112482;-72
2022/03/25 16:16:33;;;;;;;12.40;6.10;;;;;;;16.23;18.72;101142.66;4989929;28;105990;-70
2022/03/25 16:18:58;;;;;;;14.27;6.50;;;;;;;16.13;19.07;101146.63;4991046;28;106073;-68
2022/03/25 16:21:24;;;;;;;15.93;6.88;;;;;;;16.03;19.08;101152.25;4990325;28;106203;-68
2022/03/25 16:23:49;;;;;;;13.25;6.32;;;;;;;15.93;19.64;101143.66;4989907;28;105797;-71
2022/03/25 16:26:17;;;;;;;12.88;5.93;;;;;;;15.84;19.64;101153.59;4989427;28;111191;-69
2022/03/25 16:28:42;;;;;;;16.13;6.50;;;;;;;15.72;19.89;101150.50;4990500;28;106344;-69
2022/03/25 16:31:07;;;;;;;16.25;7.72;;;;;;;15.60;20.26;101146.59;4990514;28;106190;-68
2022/03/25 16:33:33;;;;;;;17.77;6.75;;;;;;;15.47;20.65;101147.16;4989980;28;106577;-69
2022/03/25 16:36:01;;;;;;;17.77;7.47;;;;;;;15.36;20.98;101140.34;4990245;28;105928;-70
2022/03/25 16:38:26;;;;;;;14.27;6.72;;;;;;;15.21;21.21;101145.66;4990486;28;106039;-69
2022/03/25 16:40:52;;;;;;;21.98;9.60;;;;;;;15.06;21.67;101153.63;4989696;28;105849;-69
2022/03/25 16:43:18;;;;;;;16.25;8.30;;;;;;;14.91;22.26;101150.84;4989855;28;106782;-68
2022/03/25 16:45:44;;;;;;;18.15;8.05;;;;;;;14.78;22.36;101153.28;4989464;28;105982;-72
2022/03/25 16:48:10;;;;;;;16.98;7.43;;;;;;;14.66;22.72;101155.50;4990445;28;105959;-71
2022/03/25 16:50:35;;;;;;;19.52;8.23;;;;;;;14.52;23.17;101157.84;4990131;28;106315;-72
2022/03/25 16:53:01;;;;;;;22.55;8.13;;;;;;;14.41;23.42;101160.91;4989691;28;106621;-71
2022/03/25 16:55:26;;;;;;;22.15;8.63;;;;;;;14.27;23.80;101161.59;4989558;28;105891;-73
2022/03/25 16:57:52;;;;;;;17.42;9.90;;;;;;;14.15;24.15;101159.28;4990521;28;105813;-73
2022/03/25 17:00:19;;;;;;;17.00;9.27;;;;;;;14.03;24.59;101157.97;4989944;28;106249;-73
2022/03/25 17:02:48;;;;;;;18.25;8.27;;;;;;;13.91;24.51;101157.47;4989158;28;106776;-72
2022/03/25 17:05:14;;;;;;;20.08;9.75;;;;;;;13.77;25.14;101161.66;4989387;28;106212;-71
2022/03/25 17:07:39;;;;;;;17.33;8.80;;;;;;;13.66;25.31;101170.03;4989934;28;106036;-73
2022/03/25 17:10:05;;;;;;;20.92;9.63;;;;;;;13.53;25.70;101166.00;4988072;28;108216;-74
2022/03/25 17:12:31;;;;;;;22.75;10.68;;;;;;;13.40;25.81;101165.66;4988819;28;106418;-68
2022/03/25 17:14:56;;;;;;;22.95;10.88;;;;;;;13.28;26.31;101165.09;4987993;28;105984;-68
2022/03/25 17:17:22;;;;;;;21.73;11.55;;;;;;;13.15;26.74;101173.59;4988895;28;105991;-70
2022/03/25 17:19:47;;;;;;;18.88;10.77;;;;;;;13.02;26.84;101170.53;4989083;28;106289;-68
2022/03/25 17:22:14;;;;;;;22.45;12.07;;;;;;;12.90;27.04;101171.84;4988507;28;106573;-72
2022/03/25 17:24:40;;;;;;;20.75;11.68;;;;;;;12.79;26.99;101170.28;4988423;28;106104;-68
2022/03/25 17:27:06;;;;;;;22.30;12.13;;;;;;;12.67;27.91;101172.41;4989163;28;106031;-68
2022/03/25 17:29:32;;;;;;;24.23;11.43;;;;;;;12.58;27.71;101173.38;4988905;28;106113;-69
2022/03/25 17:31:58;;;;;;;23.38;11.55;;;;;;;12.49;27.44;101178.69;4988445;28;105808;-70
2022/03/25 17:34:23;;;;;;;22.20;11.80;;;;;;;12.40;28.60;101184.97;4988786;28;105920;-71
2022/03/25 17:36:48;;;;;;;23.20;11.48;;;;;;;12.32;28.00;101184.91;4989468;28;106369;-71
2022/03/25 17:39:15;;;;;;;32.22;12.45;;;;;;;12.24;28.24;101187.53;4988658;28;106230;-70
2022/03/25 17:41:42;;;;;;;25.77;13.02;;;;;;;12.15;28.65;101186.63;4988049;28;105951;-71
2022/03/25 17:44:10;;;;;;;20.67;11.68;;;;;;;12.07;29.03;101184.75;4986799;28;106050;-70
2022/03/25 17:46:35;;;;;;;21.70;12.80;;;;;;;12.00;28.88;101179.19;4985324;28;106072;-70
2022/03/25 17:49:01;;;;;;;26.17;12.63;;;;;;;11.94;29.38;101185.13;4988018;28;106189;-70
2022/03/25 17:51:26;;;;;;;23.52;12.50;;;;;;;11.88;29.53;101190.22;4987481;28;107135;-74
2022/03/25 17:53:52;;;;;;;30.52;13.00;;;;;;;11.82;29.09;101183.69;4987825;28;106031;-70
2022/03/25 17:56:17;;;;;;;29.50;14.48;;;;;;;11.77;29.52;101189.50;4988801;28;105853;-70
2022/03/25 17:58:42;;;;;;;27.88;14.48;;;;;;;11.72;29.57;101182.94;4987868;28;106938;-72
2022/03/25 18:01:08;;;;;;;29.05;13.98;;;;;;;11.67;30.33;101194.06;4988111;28;106645;-71
2022/03/25 18:03:35;;;;;;;36.80;16.92;;;;;;;11.61;30.05;101189.34;4987856;28;105991;-69
2022/03/25 18:06:00;;;;;;;48.40;20.00;;;;;;;11.56;30.35;101194.28;4988505;28;105771;-70
2022/03/25 18:08:27;;;;;;;42.05;18.27;;;;;;;11.50;30.77;101193.91;4988006;28;105908;-72
2022/03/25 18:10:52;;;;;;;38.25;18.88;;;;;;;11.45;30.99;101198.03;4987141;28;106734;-71
2022/03/25 18:13:18;;;;;;;44.42;19.10;;;;;;;11.38;31.16;101200.44;4987279;28;106149;-71
2022/03/25 18:15:44;;;;;;;55.72;20.85;;;;;;;11.32;31.05;101206.41;4988279;28;105989;-71
2022/03/25 18:18:13;;;;;;;42.28;22.63;;;;;;;11.26;31.10;101207.00;4986315;28;106111;-70